Time;durP1;ratioP1;P1;durP2;ratioP2;P2;SDS_P1;SDS_P2;PMS_P1;PMS_P2;Temp;Humidity;BMP_temperature;BMP_pressure;BME280_temperature;BME280_humidity;BME280_pressure;Samples;Min_cycle;Max_cycle;Signal;HPM_P1;HPM_P2
2021/07/01 00:01:11;;;;;;;14.30;6.40;;;;;;;18.75;82.82;98438.97;5086865;28;20138;-69
2021/07/01 00:03:50;;;;;;;9.48;6.25;;;;;;;18.75;82.49;98441.66;5087920;27;20908;-69
2021/07/01 00:06:26;;;;;;;11.23;6.53;;;;;;;18.74;82.75;98444.59;5102601;27;1443294;-69
2021/07/01 00:09:05;;;;;;;9.55;6.70;;;;;;;18.75;82.89;98440.84;5108373;27;20384;-68
2021/07/01 00:12:22;;;;;;;10.63;6.38;;;;;;;18.75;83.00;98440.84;5075856;27;2113632;-68
2021/07/01 00:15:03;;;;;;;8.23;6.78;;;;;;;18.74;82.97;98436.53;5169524;27;20181;-71
2021/07/01 00:17:42;;;;;;;11.85;6.88;;;;;;;18.75;83.18;98441.66;5107869;27;20384;-69
2021/07/01 00:20:21;;;;;;;8.90;6.95;;;;;;;18.75;83.45;98443.53;5107924;27;20380;-69
2021/07/01 00:22:57;;;;;;;12.57;6.95;;;;;;;18.73;83.26;98440.28;5100717;27;1441004;-68
2021/07/01 00:25:34;;;;;;;9.35;7.03;;;;;;;18.58;83.38;98419.25;5101186;27;1456266;-68
2021/07/01 00:28:11;;;;;;;9.38;7.55;;;;;;;18.73;83.49;98449.16;5088247;27;20493;-69
2021/07/01 00:30:49;;;;;;;12.27;7.20;;;;;;;18.74;83.89;98445.41;5083702;28;20913;-67
2021/07/01 00:33:26;;;;;;;10.45;7.25;;;;;;;18.74;83.85;98444.59;5107739;27;1399899;-67
2021/07/01 00:36:04;;;;;;;9.02;7.00;;;;;;;18.74;83.54;98441.91;5108395;27;20380;-69
2021/07/01 00:38:42;;;;;;;11.65;6.32;;;;;;;18.74;83.50;98437.34;5108246;27;20380;-68
2021/07/01 00:41:19;;;;;;;10.10;6.95;;;;;;;18.74;83.42;98437.34;5063534;27;20131;-70
2021/07/01 00:43:56;;;;;;;9.45;6.85;;;;;;;18.78;83.17;98434.97;5075605;27;1420935;-67
2021/07/01 00:46:33;;;;;;;9.10;7.28;;;;;;;18.76;83.24;98435.22;5170404;27;20343;-71
2021/07/01 00:49:09;;;;;;;9.00;6.80;;;;;;;18.74;83.31;98431.97;5100573;27;1392533;-68
2021/07/01 00:51:46;;;;;;;11.77;7.75;;;;;;;18.73;83.55;98432.22;5106551;27;20136;-68
2021/07/01 00:54:24;;;;;;;8.80;7.53;;;;;;;18.73;83.63;98433.00;5106528;27;20380;-69
2021/07/01 00:57:03;;;;;;;10.07;6.93;;;;;;;18.73;83.41;98422.25;5083438;28;20917;-68
2021/07/01 00:59:42;;;;;;;10.30;7.18;;;;;;;18.73;83.48;98429.53;5159965;27;20188;-69
2021/07/01 01:02:21;;;;;;;11.65;7.20;;;;;;;18.76;83.19;98423.66;5108673;27;20435;-68
2021/07/01 01:04:58;;;;;;;11.35;7.63;;;;;;;18.74;83.66;98423.91;5102110;27;1439958;-68
2021/07/01 01:07:34;;;;;;;11.18;7.88;;;;;;;18.73;83.55;98419.56;5102127;27;1455748;-71
2021/07/01 01:10:13;;;;;;;10.68;7.30;;;;;;;18.73;83.79;98427.63;5129021;27;20414;-68
2021/07/01 01:12:56;;;;;;;12.13;8.18;;;;;;;18.72;83.75;98426.00;5108538;27;20380;-68
2021/07/01 01:15:39;;;;;;;9.40;8.38;;;;;;;18.72;83.83;98426.00;5172993;27;20139;-67
2021/07/01 01:18:17;;;;;;;9.00;7.40;;;;;;;18.69;84.08;98426.47;5108389;27;20381;-68
2021/07/01 01:20:57;;;;;;;13.32;7.85;;;;;;;18.71;84.23;98432.44;5100949;27;1448131;-68
2021/07/01 01:23:35;;;;;;;13.00;7.57;;;;;;;18.72;84.30;98425.19;5130137;27;20409;-70
2021/07/01 01:26:13;;;;;;;8.80;7.45;;;;;;;18.72;83.94;98425.19;5101722;27;1456104;-68
2021/07/01 01:28:59;;;;;;;8.85;7.07;;;;;;;18.78;84.17;98424.22;5170670;27;19922;-69
2021/07/01 01:31:37;;;;;;;10.90;7.55;;;;;;;18.77;84.15;98415.34;5103089;27;1427962;-70
2021/07/01 01:34:40;;;;;;;11.02;7.20;;;;;;;18.80;84.09;98411.34;5170422;27;20134;-68
2021/07/01 01:37:34;;;;;;;12.35;6.32;;;;;;;18.81;84.13;98408.41;5102730;27;1446585;-68
2021/07/01 01:40:29;;;;;;;12.02;7.10;;;;;;;18.79;84.28;98413.22;5120797;27;20400;-69
2021/07/01 01:43:27;;;;;;;8.77;6.82;;;;;;;18.80;84.46;98406.81;5059467;27;2101880;-68
2021/07/01 01:46:23;;;;;;;8.85;6.60;;;;;;;18.81;84.36;98412.97;5141505;27;20179;-69
2021/07/01 01:49:25;;;;;;;10.27;6.80;;;;;;;18.79;84.53;98418.59;5105824;27;1459047;-69
2021/07/01 01:52:20;;;;;;;10.90;6.78;;;;;;;18.77;84.63;98426.09;5093081;27;1435908;-69
2021/07/01 01:55:15;;;;;;;9.93;6.57;;;;;;;18.77;84.62;98423.41;5107433;27;1416110;-68
2021/07/01 01:58:12;;;;;;;7.90;6.22;;;;;;;18.76;84.71;98415.59;5170306;27;20191;-69
2021/07/01 02:01:07;;;;;;;8.23;6.38;;;;;;;18.76;84.51;98427.16;5108301;27;20376;-71
2021/07/01 02:04:04;;;;;;;10.25;6.10;;;;;;;18.74;84.90;98423.06;5100873;27;20387;-68
2021/07/01 02:06:58;;;;;;;10.95;5.72;;;;;;;18.77;84.64;98425.28;5101052;27;1425199;-68
2021/07/01 02:09:53;;;;;;;7.70;5.68;;;;;;;18.82;84.61;98434.25;5108448;27;20383;-68
2021/07/01 02:12:52;;;;;;;8.70;5.43;;;;;;;18.84;84.46;98428.63;5108562;27;20662;-68
2021/07/01 02:15:47;;;;;;;8.75;5.80;;;;;;;18.97;84.51;98431.88;5102381;27;1405555;-68
2021/07/01 02:18:48;;;;;;;6.72;4.57;;;;;;;19.02;83.97;98433.84;5128893;27;20182;-68
2021/07/01 02:21:42;;;;;;;6.97;5.07;;;;;;;19.03;84.07;98432.78;5107553;27;1404263;-69
2021/07/01 02:24:39;;;;;;;8.07;4.63;;;;;;;19.05;83.69;98436.84;5170729;27;20157;-70
2021/07/01 02:27:35;;;;;;;9.23;5.90;;;;;;;19.13;83.40;98438.34;5106617;27;1412651;-67
2021/07/01 02:30:30;;;;;;;7.68;4.63;;;;;;;19.13;83.72;98441.84;5076508;27;2137085;-68
2021/07/01 02:33:25;;;;;;;6.00;4.50;;;;;;;19.10;83.64;98431.56;5103820;27;1392581;-67
2021/07/01 02:36:18;;;;;;;8.65;4.57;;;;;;;19.16;83.25;98441.38;5106809;27;1423800;-68
2021/07/01 02:39:14;;;;;;;7.82;4.35;;;;;;;19.15;82.90;98447.81;5083250;28;20766;-68
2021/07/01 02:42:10;;;;;;;8.43;4.38;;;;;;;19.19;82.90;98442.78;5084917;27;2125412;-69
2021/07/01 02:45:10;;;;;;;7.70;4.32;;;;;;;19.22;82.69;98442.28;5099681;27;1453059;-69
2021/07/01 02:48:07;;;;;;;6.10;3.67;;;;;;;19.10;82.51;98412.72;5105747;27;1437634;-68
2021/07/01 02:51:21;;;;;;;4.63;3.70;;;;;;;19.29;82.57;98427.66;5149211;27;20752;-68
2021/07/01 02:54:16;;;;;;;6.68;3.95;;;;;;;19.35;82.18;98432.06;5097608;27;1559595;-68
2021/07/01 02:57:14;;;;;;;5.07;3.10;;;;;;;19.37;81.92;98429.91;5170340;27;20126;-69
2021/07/01 03:00:13;;;;;;;11.30;3.72;;;;;;;19.50;81.88;98435.00;5106088;27;1418241;-68
2021/07/01 03:03:14;;;;;;;6.40;3.70;;;;;;;19.64;81.19;98441.72;5075413;27;1434861;-68
2021/07/01 03:06:17;;;;;;;6.22;3.13;;;;;;;19.67;80.92;98445.78;5101721;27;1416712;-69
2021/07/01 03:09:13;;;;;;;3.80;2.90;;;;;;;19.69;80.76;98455.28;5191432;27;20383;-68
2021/07/01 03:12:09;;;;;;;5.43;2.80;;;;;;;19.70;80.56;98443.41;5108670;27;20918;-68
2021/07/01 03:15:06;;;;;;;5.57;2.45;;;;;;;19.70;80.44;98438.03;5170426;27;20122;-69
2021/07/01 03:18:02;;;;;;;4.40;2.53;;;;;;;19.74;80.53;98444.56;5128822;27;20135;-68
2021/07/01 03:21:07;;;;;;;3.33;2.45;;;;;;;19.77;80.42;98459.44;5191431;27;20135;-69
2021/07/01 03:24:04;;;;;;;3.38;2.60;;;;;;;19.74;80.25;98441.06;5170300;27;20838;-69
2021/07/01 03:27:00;;;;;;;6.95;2.67;;;;;;;19.76;80.13;98449.69;5083333;28;20394;-68
2021/07/01 03:29:56;;;;;;;3.53;2.30;;;;;;;19.81;80.41;98447.91;5076480;27;2134026;-69
2021/07/01 03:32:54;;;;;;;3.95;2.53;;;;;;;19.86;79.99;98445.31;5141212;27;20592;-69
2021/07/01 03:35:47;;;;;;;3.05;2.58;;;;;;;19.89;79.89;98450.19;5106827;27;1425268;-67
2021/07/01 03:38:43;;;;;;;6.28;2.60;;;;;;;19.90;79.97;98449.13;5149467;27;20737;-72
2021/07/01 03:41:41;;;;;;;9.23;2.75;;;;;;;19.88;80.07;98453.94;5129180;27;20132;-69
2021/07/01 03:44:37;;;;;;;5.65;3.08;;;;;;;19.99;79.82;98453.03;5101621;27;1418084;-69
2021/07/01 03:47:45;;;;;;;5.10;2.58;;;;;;;20.01;79.78;98448.22;5191203;27;20129;-70
2021/07/01 03:50:49;;;;;;;4.95;2.17;;;;;;;20.06;79.34;98459.06;5083411;28;20413;-69
2021/07/01 03:53:47;;;;;;;5.18;2.70;;;;;;;20.15;79.18;98455.97;5128820;27;20153;-69
2021/07/01 03:56:44;;;;;;;6.28;2.45;;;;;;;20.29;79.15;98458.09;5067784;28;20131;-71
2021/07/01 03:59:42;;;;;;;3.78;2.40;;;;;;;20.41;78.18;98457.97;5150014;27;20397;-69
2021/07/01 04:02:37;;;;;;;4.30;2.60;;;;;;;20.57;77.72;98462.50;5105394;27;1426250;-67
2021/07/01 04:05:33;;;;;;;4.22;2.00;;;;;;;20.73;77.22;98475.13;5108262;27;20376;-65
2021/07/01 04:08:29;;;;;;;4.22;2.10;;;;;;;21.05;75.88;98463.41;5108195;27;20376;-66
2021/07/01 04:11:24;;;;;;;2.70;1.55;;;;;;;21.38;74.38;98465.91;5103511;27;1402404;-69
2021/07/01 04:14:22;;;;;;;2.92;1.70;;;;;;;21.79;72.90;98469.81;5162549;27;20133;-69
2021/07/01 04:17:18;;;;;;;3.42;1.73;;;;;;;21.77;72.57;98469.28;5149250;27;20586;-69
2021/07/01 04:20:15;;;;;;;4.15;1.90;;;;;;;21.98;71.67;98471.06;5170581;27;20174;-69
2021/07/01 04:23:10;;;;;;;1.98;1.48;;;;;;;21.99;71.50;98456.47;5108247;27;20744;-69
2021/07/01 04:26:05;;;;;;;3.17;1.48;;;;;;;21.97;71.35;98452.41;5104114;27;1376448;-69
2021/07/01 04:28:59;;;;;;;2.33;1.30;;;;;;;22.03;71.47;98451.34;5082352;27;1416012;-70
2021/07/01 04:31:55;;;;;;;1.90;1.50;;;;;;;22.20;70.92;98466.34;5120747;27;20393;-69
2021/07/01 04:34:50;;;;;;;2.67;1.95;;;;;;;22.56;69.73;98467.38;5108121;27;20380;-69
2021/07/01 04:37:46;;;;;;;3.10;1.70;;;;;;;22.72;68.91;98467.22;5191461;27;20754;-71
2021/07/01 04:40:41;;;;;;;7.05;5.90;;;;;;;22.77;68.70;98469.91;5103691;27;1396911;-70
2021/07/01 04:43:37;;;;;;;5.43;4.82;;;;;;;23.10;67.65;98466.81;5067584;28;20379;-70
2021/07/01 04:46:33;;;;;;;4.28;2.15;;;;;;;23.40;66.92;98470.69;5087886;28;20388;-69
2021/07/01 04:49:29;;;;;;;2.85;1.98;;;;;;;23.65;65.39;98470.75;5063874;27;2106234;-70
2021/07/01 04:52:33;;;;;;;4.95;1.73;;;;;;;23.82;64.86;98460.44;5148431;27;20380;-70
2021/07/01 04:55:33;;;;;;;3.60;1.70;;;;;;;23.99;63.90;98458.28;5107726;27;20748;-70
2021/07/01 04:58:29;;;;;;;3.17;1.67;;;;;;;24.14;63.09;98463.72;5076157;27;2125029;-69
2021/07/01 05:01:24;;;;;;;3.75;1.90;;;;;;;24.21;63.00;98454.19;5102350;27;1412906;-70
2021/07/01 05:04:20;;;;;;;3.95;1.70;;;;;;;24.31;62.76;98450.66;5169528;27;19929;-71
2021/07/01 05:07:17;;;;;;;3.67;1.52;;;;;;;24.56;61.93;98456.81;5190791;27;20133;-71
2021/07/01 05:10:20;;;;;;;3.28;1.33;;;;;;;24.95;61.40;98470.56;5100683;27;1452241;-72
2021/07/01 05:13:14;;;;;;;3.13;1.30;;;;;;;25.39;59.15;98460.53;5105542;27;1449285;-71
2021/07/01 05:16:10;;;;;;;1.65;1.10;;;;;;;25.83;57.73;98465.94;5190587;27;19923;-72
2021/07/01 05:19:07;;;;;;;3.65;1.40;;;;;;;26.06;56.32;98465.25;5107736;27;20608;-71
2021/07/01 05:22:03;;;;;;;3.67;1.25;;;;;;;26.14;56.10;98457.25;5107783;27;20380;-72
2021/07/01 05:25:04;;;;;;;3.25;1.52;;;;;;;26.16;55.28;98455.06;5107207;27;1392002;-72
2021/07/01 05:28:10;;;;;;;2.47;1.27;;;;;;;26.16;55.26;98456.97;5087219;28;20478;-72
2021/07/01 05:31:07;;;;;;;5.97;2.88;;;;;;;26.10;55.42;98450.78;5107561;27;20907;-72
2021/07/01 05:34:03;;;;;;;9.27;3.50;;;;;;;26.16;55.11;98451.53;5170013;27;19930;-72
2021/07/01 05:37:00;;;;;;;5.10;3.03;;;;;;;26.20;54.97;98447.16;5107828;27;20472;-71
2021/07/01 05:39:56;;;;;;;3.33;2.72;;;;;;;26.52;54.18;98457.41;5102976;27;20473;-71
2021/07/01 05:42:52;;;;;;;9.10;2.10;;;;;;;26.77;53.26;98460.69;5107051;27;20384;-70
2021/07/01 05:45:55;;;;;;;1.70;1.25;;;;;;;26.85;52.95;98461.97;5107551;27;20374;-71
2021/07/01 05:48:50;;;;;;;4.05;1.90;;;;;;;26.77;53.36;98465.34;5148159;27;20385;-70
2021/07/01 05:51:49;;;;;;;5.15;2.10;;;;;;;26.78;53.44;98459.59;5148404;27;20524;-71
2021/07/01 05:54:57;;;;;;;1.88;1.60;;;;;;;26.77;53.06;98451.72;5107802;27;20744;-70
2021/07/01 05:58:00;;;;;;;3.53;1.60;;;;;;;26.56;53.25;98451.09;5169887;27;20130;-71
2021/07/01 06:01:03;;;;;;;2.40;1.45;;;;;;;26.51;53.50;98456.59;5169997;27;20166;-72
2021/07/01 06:03:59;;;;;;;2.85;1.45;;;;;;;26.43;53.85;98466.22;5107734;27;20385;-71
2021/07/01 06:06:55;;;;;;;3.45;1.60;;;;;;;26.28;54.57;98454.66;5107695;27;20387;-70
2021/07/01 06:10:09;;;;;;;1.95;1.42;;;;;;;26.30;54.32;98468.81;5190346;27;20393;-71
2021/07/01 06:13:11;;;;;;;2.78;1.23;;;;;;;26.44;54.17;98465.13;5106479;27;1412827;-71
2021/07/01 06:16:11;;;;;;;2.17;1.40;;;;;;;26.73;53.55;98467.81;5148924;27;20389;-71
2021/07/01 06:19:07;;;;;;;2.10;1.60;;;;;;;26.81;52.93;98472.63;5102941;27;1393578;-71
2021/07/01 06:22:10;;;;;;;4.22;1.20;;;;;;;26.72;52.71;98465.38;5107493;27;20403;-71
2021/07/01 06:25:12;;;;;;;3.75;1.17;;;;;;;26.54;53.21;98475.06;5087872;27;20719;-72
2021/07/01 06:28:18;;;;;;;3.60;1.20;;;;;;;26.52;53.46;98480.03;5055200;28;20059;-71
2021/07/01 06:31:13;;;;;;;2.78;1.33;;;;;;;26.65;53.19;98473.91;5105866;27;20376;-71
2021/07/01 06:33:49;;;;;;;5.40;1.50;;;;;;;26.85;52.23;98451.88;5098992;27;1388352;-72
2021/07/01 06:36:28;;;;;;;6.28;2.90;;;;;;;27.27;51.61;98472.88;5107758;27;20921;-71
2021/07/01 06:39:27;;;;;;;4.78;1.60;;;;;;;27.56;50.61;98474.38;5107703;27;20124;-73
2021/07/01 06:42:21;;;;;;;3.67;1.20;;;;;;;28.02;49.36;98479.16;5101632;27;1410934;-72
2021/07/01 06:45:37;;;;;;;2.40;1.33;;;;;;;28.30;48.33;98469.88;5107605;27;20132;-71
2021/07/01 06:48:33;;;;;;;5.18;1.20;;;;;;;28.45;48.02;98461.41;5082510;28;20883;-71
2021/07/01 06:51:38;;;;;;;5.22;1.27;;;;;;;28.56;47.18;98480.09;5172216;27;20128;-71
2021/07/01 06:54:35;;;;;;;3.15;1.10;;;;;;;28.58;47.02;98477.06;5067306;28;20379;-70
2021/07/01 06:58:06;;;;;;;2.47;1.00;;;;;;;28.78;46.24;98480.22;5107451;27;20136;-70
2021/07/01 07:00:42;;;;;;;1.17;0.90;;;;;;;29.07;45.23;98472.53;5092870;27;1454904;-71
2021/07/01 07:03:19;;;;;;;2.70;1.17;;;;;;;29.60;43.91;98483.63;5067271;28;20134;-72
2021/07/01 07:05:57;;;;;;;6.93;1.83;;;;;;;30.06;42.87;98478.72;5107000;27;1404597;-73
2021/07/01 07:08:36;;;;;;;3.65;1.10;;;;;;;30.31;42.09;98474.53;5149034;27;20381;-73
2021/07/01 07:11:13;;;;;;;1.65;1.25;;;;;;;30.25;42.37;98456.63;5107870;27;20380;-73
2021/07/01 07:14:03;;;;;;;2.00;1.10;;;;;;;30.31;41.81;98466.31;5082838;28;20391;-72
2021/07/01 07:16:41;;;;;;;2.60;0.90;;;;;;;30.59;41.55;98481.47;5102702;27;1405243;-71
2021/07/01 07:19:20;;;;;;;5.63;1.50;;;;;;;30.97;40.34;98477.94;5107051;27;1402455;-71
2021/07/01 07:21:59;;;;;;;2.75;1.30;;;;;;;31.51;39.34;98476.59;5065473;28;20379;-71
2021/07/01 07:24:38;;;;;;;1.92;1.10;;;;;;;31.86;38.02;98472.75;5191115;27;20402;-73
2021/07/01 07:27:16;;;;;;;6.03;2.22;;;;;;;31.88;38.64;98478.75;5108268;27;20388;-71
2021/07/01 07:29:54;;;;;;;2.35;1.20;;;;;;;31.51;39.22;98462.06;5189441;27;19923;-71
2021/07/01 07:32:32;;;;;;;3.80;1.40;;;;;;;31.15;39.50;98468.59;5108304;27;20904;-71
2021/07/01 07:35:10;;;;;;;9.13;1.50;;;;;;;30.53;40.86;98469.03;5107670;27;20407;-72
2021/07/01 07:37:47;;;;;;;5.93;1.33;;;;;;;30.38;41.50;98474.91;5108209;27;20137;-71
2021/07/01 07:40:24;;;;;;;11.18;1.70;;;;;;;30.21;41.41;98480.28;5067831;28;20131;-72
2021/07/01 07:43:03;;;;;;;2.70;1.25;;;;;;;29.89;41.53;98472.31;5087848;28;20136;-71
2021/07/01 07:45:41;;;;;;;4.60;1.30;;;;;;;30.28;40.56;98491.59;5108090;27;20384;-71
2021/07/01 07:48:18;;;;;;;5.38;3.10;;;;;;;30.64;40.39;98489.56;5097512;27;1418775;-70
2021/07/01 07:51:15;;;;;;;2.97;1.17;;;;;;;31.00;39.55;98487.44;5086630;27;20377;-71
2021/07/01 07:53:54;;;;;;;6.68;1.45;;;;;;;31.85;38.01;98493.13;5078139;27;1415098;-72
2021/07/01 07:56:37;;;;;;;5.57;1.58;;;;;;;32.53;36.79;98495.78;5100365;27;1439882;-71
2021/07/01 07:59:19;;;;;;;5.18;1.45;;;;;;;32.34;36.46;98489.81;5085939;27;20382;-72
2021/07/01 08:02:04;;;;;;;7.65;1.38;;;;;;;31.66;37.83;98500.03;5168149;27;20130;-71
2021/07/01 08:04:40;;;;;;;7.90;1.80;;;;;;;31.01;39.46;98505.53;5105904;27;20721;-71
2021/07/01 08:07:18;;;;;;;9.23;1.45;;;;;;;30.13;41.01;98491.97;5103001;27;20129;-72
2021/07/01 08:09:56;;;;;;;8.65;1.98;;;;;;;29.42;42.95;98512.78;5110533;27;20748;-71
2021/07/01 08:12:32;;;;;;;5.75;1.67;;;;;;;28.63;45.16;98507.81;5102119;27;1407651;-69
2021/07/01 08:15:12;;;;;;;5.00;2.08;;;;;;;27.95;49.31;98509.53;5191031;27;20327;-71
2021/07/01 08:17:52;;;;;;;11.82;6.95;;;;;;;27.36;52.87;98509.28;5149007;27;20378;-69
2021/07/01 08:20:31;;;;;;;10.95;2.30;;;;;;;26.83;53.61;98499.59;5093641;27;20388;-69
2021/07/01 08:23:09;;;;;;;4.65;2.35;;;;;;;26.61;54.72;98515.59;5157133;27;20127;-68
2021/07/01 08:25:46;;;;;;;6.57;2.55;;;;;;;26.42;55.12;98523.69;5092500;27;1382379;-67
2021/07/01 08:28:24;;;;;;;7.93;2.38;;;;;;;26.34;55.84;98521.56;5106693;27;20379;-68
2021/07/01 08:31:15;;;;;;;6.77;2.17;;;;;;;26.47;56.06;98534.53;5088592;27;1412831;-69
2021/07/01 08:33:51;;;;;;;4.90;1.75;;;;;;;26.64;55.44;98525.94;5108032;27;1382492;-67
2021/07/01 08:36:29;;;;;;;5.15;1.80;;;;;;;27.16;54.68;98528.59;5108138;27;20387;-68
2021/07/01 08:39:08;;;;;;;4.45;2.00;;;;;;;27.54;53.54;98525.66;5107965;27;20385;-67
2021/07/01 08:41:48;;;;;;;4.03;2.08;;;;;;;27.84;52.72;98535.34;5170474;27;20129;-68
2021/07/01 08:44:30;;;;;;;6.15;2.20;;;;;;;27.92;52.70;98529.25;5108050;27;20391;-68
2021/07/01 08:47:16;;;;;;;4.88;1.83;;;;;;;27.86;52.15;98536.66;5080536;27;1457818;-68
2021/07/01 08:50:02;;;;;;;3.15;1.85;;;;;;;27.77;51.75;98534.88;5067403;28;20386;-68
2021/07/01 08:53:03;;;;;;;4.80;2.25;;;;;;;27.52;52.04;98543.44;5107953;27;20393;-69
2021/07/01 08:58:44;;;;;;;4.72;2.30;;;;;;;26.66;56.31;98557.25;5107987;27;20905;-67
2021/07/01 09:01:20;;;;;;;6.60;2.38;;;;;;;26.23;57.48;98558.97;5103145;27;1402560;-68
2021/07/01 09:03:58;;;;;;;4.15;2.00;;;;;;;25.96;58.22;98558.63;5101673;27;1444424;-68
2021/07/01 09:06:36;;;;;;;3.47;2.00;;;;;;;25.92;59.32;98564.91;5102969;27;1406788;-68
2021/07/01 09:09:15;;;;;;;3.42;2.17;;;;;;;26.00;58.97;98559.69;5067883;28;20386;-68
2021/07/01 09:11:52;;;;;;;7.20;2.35;;;;;;;27.18;56.26;98562.69;5107760;27;20376;-67
2021/07/01 09:14:29;;;;;;;12.55;2.63;;;;;;;29.32;50.58;98551.28;5107730;27;20129;-69
2021/07/01 09:17:09;;;;;;;8.07;2.50;;;;;;;30.38;47.05;98563.41;5067225;28;20819;-68
2021/07/01 09:19:46;;;;;;;6.65;2.55;;;;;;;30.80;45.91;98562.06;5170290;27;20126;-69
2021/07/01 09:22:25;;;;;;;5.22;1.90;;;;;;;32.81;41.21;98562.19;5107892;27;20388;-69
2021/07/01 09:25:21;;;;;;;5.45;2.13;;;;;;;35.61;35.56;98565.69;5108034;27;20391;-69
2021/07/01 09:27:59;;;;;;;6.22;2.50;;;;;;;38.37;30.78;98570.59;5165334;27;19923;-68
2021/07/01 09:30:37;;;;;;;6.35;2.28;;;;;;;40.70;26.65;98551.72;5098262;27;21227;-68
2021/07/01 09:33:13;;;;;;;6.80;2.13;;;;;;;41.17;25.49;98543.41;5106841;27;20132;-69
2021/07/01 09:35:49;;;;;;;4.80;2.00;;;;;;;42.31;22.99;98543.75;5093146;27;1373341;-69
2021/07/01 09:38:27;;;;;;;7.93;1.98;;;;;;;41.58;23.53;98536.56;5066305;28;20386;-70
2021/07/01 09:41:02;;;;;;;2.60;1.80;;;;;;;41.39;23.70;98547.97;5069802;27;2092288;-70
2021/07/01 09:43:40;;;;;;;6.72;1.98;;;;;;;42.82;22.22;98558.28;5106652;27;20152;-70
2021/07/01 09:46:23;;;;;;;6.70;1.90;;;;;;;44.09;20.57;98564.63;5091661;27;1383433;-68
2021/07/01 09:49:02;;;;;;;6.05;2.00;;;;;;;45.57;18.75;98550.50;5106919;27;20415;-68
2021/07/01 09:51:38;;;;;;;5.65;2.10;;;;;;;46.58;17.19;98544.91;5096813;27;1385819;-71
2021/07/01 09:54:28;;;;;;;4.65;2.10;;;;;;;47.67;16.07;98562.09;5072224;27;20394;-70
2021/07/01 09:57:08;;;;;;;7.90;2.35;;;;;;;46.78;16.52;98548.63;5095455;27;1468995;-69
2021/07/01 09:59:59;;;;;;;3.10;1.70;;;;;;;45.06;17.95;98532.91;5107611;27;20957;-69
2021/07/01 10:02:38;;;;;;;2.63;1.60;;;;;;;42.95;20.38;98544.72;5149069;27;20661;-69
2021/07/01 10:05:28;;;;;;;5.38;2.20;;;;;;;41.94;20.85;98547.94;5108346;27;20400;-68
2021/07/01 10:08:06;;;;;;;6.60;1.85;;;;;;;40.18;23.00;98544.28;5066354;28;20406;-69
2021/07/01 10:10:48;;;;;;;6.15;2.40;;;;;;;40.26;22.58;98539.66;5118389;27;20124;-69
2021/07/01 10:13:26;;;;;;;4.05;2.00;;;;;;;42.01;21.00;98542.41;5085047;27;20386;-68
2021/07/01 10:16:01;;;;;;;4.10;1.60;;;;;;;43.98;18.20;98555.44;5092836;27;1386060;-71
2021/07/01 10:18:43;;;;;;;3.22;1.73;;;;;;;44.44;17.99;98550.47;5086856;27;20508;-68
2021/07/01 10:21:29;;;;;;;2.63;1.90;;;;;;;42.67;19.37;98553.03;5058807;28;20056;-68
2021/07/01 10:24:22;;;;;;;5.03;1.92;;;;;;;40.38;21.74;98550.50;5106800;27;20718;-69
2021/07/01 10:27:00;;;;;;;7.22;2.00;;;;;;;38.93;24.00;98548.69;5066493;28;20387;-68
2021/07/01 10:29:39;;;;;;;5.70;2.55;;;;;;;40.34;22.74;98548.88;5094730;27;1379085;-67
2021/07/01 10:32:34;;;;;;;5.30;1.85;;;;;;;42.02;20.13;98555.97;5086596;27;20386;-71
2021/07/01 10:35:40;;;;;;;3.70;2.17;;;;;;;43.19;18.73;98566.31;5092032;27;1398788;-72
2021/07/01 10:38:18;;;;;;;6.97;1.70;;;;;;;41.97;20.00;98553.56;5107116;27;20125;-73
2021/07/01 10:40:55;;;;;;;4.32;1.95;;;;;;;40.39;21.84;98552.13;5093189;27;1405994;-70
2021/07/01 10:43:50;;;;;;;5.20;2.72;;;;;;;41.10;20.88;98553.69;5107458;27;20379;-70
2021/07/01 10:46:37;;;;;;;7.15;2.25;;;;;;;42.58;19.43;98547.81;5107077;27;20399;-71
2021/07/01 10:49:16;;;;;;;7.00;1.88;;;;;;;44.25;17.53;98558.56;5106711;27;20373;-72
2021/07/01 10:51:55;;;;;;;4.13;1.70;;;;;;;45.37;16.34;98557.88;5120638;27;20383;-72
2021/07/01 10:54:57;;;;;;;4.70;1.50;;;;;;;45.83;15.59;98554.66;5105122;27;20387;-70
2021/07/01 10:57:34;;;;;;;7.43;2.05;;;;;;;44.28;16.96;98566.97;5091041;27;1396237;-71
2021/07/01 11:00:12;;;;;;;4.13;1.60;;;;;;;42.17;19.40;98552.06;5107241;27;20388;-71
2021/07/01 11:02:54;;;;;;;3.65;2.03;;;;;;;40.23;21.43;98557.06;5065852;28;20774;-71
2021/07/01 11:05:34;;;;;;;4.07;1.95;;;;;;;38.96;22.86;98548.75;5169822;27;20543;-73
2021/07/01 11:08:32;;;;;;;5.30;1.60;;;;;;;38.55;23.31;98569.81;5102399;27;1428780;-73
2021/07/01 11:11:19;;;;;;;2.72;1.40;;;;;;;37.78;24.29;98568.13;5102787;27;1409051;-73
2021/07/01 11:13:58;;;;;;;4.72;1.52;;;;;;;37.19;24.79;98567.44;5100230;27;1392525;-73
2021/07/01 11:16:41;;;;;;;7.45;2.40;;;;;;;36.56;26.09;98549.97;5108273;27;1369881;-73
2021/07/01 11:22:15;;;;;;;6.60;2.08;;;;;;;34.74;29.51;98564.28;5191219;27;20385;-73
2021/07/01 11:24:51;;;;;;;6.43;2.75;;;;;;;34.26;30.05;98561.34;5107808;27;20129;-72
2021/07/01 11:27:31;;;;;;;3.47;2.45;;;;;;;33.98;30.98;98557.56;5149825;27;20521;-73
2021/07/01 11:30:24;;;;;;;6.53;2.85;;;;;;;33.82;31.37;98562.00;5067691;28;20969;-72
2021/07/01 11:33:15;;;;;;;7.03;2.65;;;;;;;33.72;31.64;98562.44;5120065;27;20404;-72
2021/07/01 11:36:14;;;;;;;7.68;2.10;;;;;;;33.75;31.68;98561.75;5159374;27;20130;-73
2021/07/01 11:39:06;;;;;;;6.20;2.00;;;;;;;33.71;31.51;98571.81;5159239;27;20176;-72
2021/07/01 11:41:45;;;;;;;3.63;2.30;;;;;;;33.57;31.67;98561.06;5160427;27;20204;-71
2021/07/01 11:44:22;;;;;;;6.85;2.60;;;;;;;33.44;32.08;98561.31;5106820;27;21021;-73
2021/07/01 11:47:01;;;;;;;3.58;1.85;;;;;;;33.54;31.80;98563.66;5096504;27;1377494;-73
2021/07/01 11:49:40;;;;;;;5.22;1.90;;;;;;;33.67;32.17;98565.38;5085778;27;20923;-73
2021/07/01 11:52:19;;;;;;;5.82;2.25;;;;;;;33.85;31.63;98572.34;5106542;27;20748;-73
2021/07/01 11:54:55;;;;;;;4.65;2.58;;;;;;;33.94;31.26;98573.94;5091946;27;1434719;-73
2021/07/01 11:57:32;;;;;;;7.38;2.33;;;;;;;33.70;31.85;98571.03;5106684;27;20128;-72
2021/07/01 12:00:07;;;;;;;6.10;1.90;;;;;;;33.77;31.30;98559.44;5083567;27;1385767;-72
2021/07/01 12:02:53;;;;;;;3.37;1.80;;;;;;;33.73;31.30;98562.09;5067192;27;2108027;-74
2021/07/01 12:05:32;;;;;;;5.65;1.67;;;;;;;33.66;30.39;98561.00;5086482;28;20524;-72
2021/07/01 12:08:09;;;;;;;5.15;1.88;;;;;;;33.69;30.41;98554.84;5106814;27;20748;-73
2021/07/01 12:10:46;;;;;;;3.42;1.58;;;;;;;33.80;30.67;98559.59;5091105;27;1462300;-72
2021/07/01 12:13:44;;;;;;;2.47;1.58;;;;;;;33.99;30.09;98559.97;5159809;27;20394;-74
2021/07/01 12:16:22;;;;;;;2.70;1.60;;;;;;;34.00;29.74;98552.50;5097753;27;20353;-72
2021/07/01 12:19:01;;;;;;;4.22;1.63;;;;;;;34.00;30.00;98550.56;5106559;27;20384;-71
2021/07/01 12:21:39;;;;;;;3.50;1.40;;;;;;;33.99;29.75;98556.41;5066694;27;20375;-72
2021/07/01 12:24:19;;;;;;;4.53;1.50;;;;;;;33.76;29.89;98533.06;5066379;28;20717;-72
2021/07/01 12:26:56;;;;;;;3.05;1.48;;;;;;;33.74;29.56;98552.66;5107021;27;20380;-72
2021/07/01 12:29:46;;;;;;;2.00;1.37;;;;;;;33.67;29.41;98555.16;5101509;27;1407582;-72
2021/07/01 12:32:28;;;;;;;1.40;1.30;;;;;;;33.42;30.08;98556.13;5065877;28;20383;-73
2021/07/01 12:35:33;;;;;;;2.97;1.58;;;;;;;33.30;30.47;98563.44;5065805;28;20899;-74
2021/07/01 12:38:12;;;;;;;5.07;1.70;;;;;;;33.17;30.44;98548.78;5147669;27;20872;-73
2021/07/01 12:41:05;;;;;;;5.88;1.80;;;;;;;33.19;30.83;98573.22;5066032;28;20393;-70
2021/07/01 12:43:44;;;;;;;2.83;1.92;;;;;;;32.96;31.40;98558.09;5066347;28;20384;-73
2021/07/01 12:46:46;;;;;;;2.53;1.70;;;;;;;32.56;31.91;98550.13;5106187;27;20376;-72
2021/07/01 12:49:34;;;;;;;6.28;1.80;;;;;;;32.13;32.39;98541.09;5109299;27;20387;-69
2021/07/01 12:52:30;;;;;;;5.38;1.90;;;;;;;31.92;32.86;98553.06;5105329;27;20383;-73
2021/07/01 12:55:09;;;;;;;5.03;2.00;;;;;;;31.73;33.48;98553.34;5064620;28;21341;-72
2021/07/01 12:57:46;;;;;;;2.05;1.75;;;;;;;31.57;34.00;98568.66;5105314;27;20380;-72
2021/07/01 13:00:23;;;;;;;4.63;2.28;;;;;;;31.24;34.94;98567.41;5105920;27;20627;-71
2021/07/01 13:03:15;;;;;;;3.47;1.73;;;;;;;30.85;35.51;98570.16;5105755;27;20403;-76
2021/07/01 13:05:54;;;;;;;5.00;1.73;;;;;;;30.48;36.63;98570.53;5093456;27;1395788;-71
2021/07/01 13:08:38;;;;;;;6.05;1.92;;;;;;;30.13;37.83;98571.41;5106798;27;20406;-72